メインページ
METAR-TAF:

METAR-TAF

空港 :

マドリード, スペイン

アドルフォ・スアレス・マドリード=バラハス空港

緯度: 40-27N, 経度: 003-33W, 海抜: 609m

現時点の気象観測

当レポートは13分前の09:30(UTC)に作成
南/南東の風 6kt、東/南東から南西の間で変化する
気温 4°C
湿度 93%
気圧 1015 hPa
視程: 5000m
高度200ftの千切れ雲あり

METAR: LEMD 250930Z 15006KT 120V220 5000 BR BKN002 04/03 Q1015 NOSIG

時間: 10:43 (09:43 UTC)

予報

当レポートは4時間43分前の05:00(UTC)に作成
予報は25日の 06時(UTC)から 26日の 12時(UTC)まで有効
変向風 5kt
視程10km以上
高度4500ftの雲はほとんどない
25日の 06時(UTC)から 25日の 09時(UTC)まで一時的に
視程: 0400m
高度100ftの
着氷性の霧
25日の 09時(UTC)から 25日の 10時(UTC)まで徐々に
南西の風 12kt
25日の 11時(UTC)から 25日の 18時(UTC)まで一時的に
南西の風 15kt、最大30ktの突風を伴う
確率 30% :
25日の 12時(UTC)から 25日の 19時(UTC)まで一時的に
視程: 4000m
高度3000ftの雲は散在している, 塔状積雲.
にわか雨
25日の 18時(UTC)から 26日の 06時(UTC)まで一時的に
視程: 4000m
高度1200ftの千切れ雲あり

TAF: LEMD 250500Z 2506/2612 VRB05KT 9999 FEW045 TX12/2515Z TNM00/2506Z TEMPO 2506/2509 0400 FZFG VV001 BECMG 2509/2510 23012KT TEMPO 2511/2518 23015G30KT PROB30 TEMPO 2512/2519 4000 SHRA SCT030TCU TEMPO 2518/2606 4000 RA BKN012

4,000以上の空港の気象観測と天気予報(METAR報とTAF報)

利用可能な観測所は地図上に黄色い丸と赤い丸で示す。

丸の上にカーソルを重ねると観測所名を参照できる。

次にクリックすると気象観測と天気予報を参照できる。

マップの切り替え:黒色「×」印の緑ボタンをクリックして拡大、「-」印の緑ボタンをクリックして縮小、緑色の三角印をクリックして隣りの地図に切り替え


METAR-TAF: